CPX772 Details

Departure: Tallinn Airport (EETN)
Arrival: Liège Airport (EBLG)
Route: TLL Q11 PIMEX P739 KOLJA M864 BUMIL OSB


Current Weather Information
EETN 232250Z 09008KT CAVOK 08/05 Q1011
EBLG 232250Z 15005KT 100V210 CAVOK 16/07 Q1016 NOSIG